Latest Coastal Weather Observations for Cape Byron

IDN60701

Issued at 10:02 pm EST Friday 29 July 2016 (issued every 10 minutes, with the page automatically refreshed every 10 minutes)

About coastal observations | Map of coastal stations | Coastal observations for NSW | Marine services | Other Formats
Station Details ID: 058216 Name: CAPE BYRON AWS Lat: -28.64 Lon: 153.64 Height: 95.0 m
Data from the previous 72 hours. | See also: Recent months at Cape Byron
Date/Time
EST
Temp
°C
Wind Pressure Rain since
9am
mm
Weather Cloud Vis
km
Sea
Height
m
Swell
Dir  Spd
kts
Gust
kts
hPa Trend Height
m
Period
s
Dir
29/10:00pm 15.6 NNW 6 9 1020.4 - 0.0 - - - - - - -
29/09:30pm 16.1 NNW 6 10 1020.5 - 0.0 - - - - - - -
29/09:00pm 16.0 NNW 6 12 1020.5 - 0.0 - - - - - - -
29/08:30pm 16.6 NNW 5 7 1020.3 - 0.0 - - - - - - -
29/08:00pm 17.1 NNW 5 8 1020.2 - 0.0 - - - - - - -
29/07:30pm 17.7 NNW 6 9 1019.9 - 0.0 - - - - - - -
29/07:00pm 18.7 N 12 16 1019.7 - 0.0 - - - - - - -
29/06:30pm 18.8 N 14 18 1019.6 - 0.0 - - - - - - -
29/06:00pm 19.0 N 14 20 1019.3 - 0.0 - - - - - - -
29/05:30pm 19.0 N 13 18 1019.1 - 0.0 - - - - - - -
29/05:00pm 19.3 NNE 11 17 1019.2 - 0.0 - - - - - - -
29/04:30pm 19.7 NNE 10 16 1019.2 - 0.0 - - - - - - -
29/04:00pm 20.2 NNE 11 16 1019.3 - 0.0 - - - - - - -
29/03:30pm 20.5 NNE 11 15 1019.5 - 0.0 - - - - - - -
29/03:00pm 20.9 NNE 8 12 1019.6 - 0.0 - - - - - - -
29/02:30pm 20.7 NE 12 14 1019.7 - 0.0 - - - - - - -
29/02:00pm 20.9 NE 10 12 1019.9 - 0.0 - - - - - - -
29/01:30pm 21.6 ENE 8 9 1020.2 - 0.0 - - - - - - -
29/01:00pm 21.5 NE 7 8 1020.7 - 0.0 - - - - - - -
29/12:30pm 21.5 NE 6 7 1021.3 - 0.0 - - - - - - -
29/12:00pm 21.3 NE 5 7 1022.0 - 0.0 - - - - - - -
29/11:30am 20.6 ENE 4 6 1022.5 - 0.0 - - - - - - -
29/11:00am 20.5 NNE 2 4 1022.9 - 0.0 - - - - - - -
29/10:30am 19.9 ENE 1 3 1023.1 - 0.0 - - - - - - -
29/10:00am 19.3 CALM 0 1 1023.5 - 0.0 - - - - - - -
29/09:30am 19.0 NNW 3 5 1023.7 - 0.0 - - - - - - -
29/09:00am 18.1 NNW 3 4 1023.7 - 0.0 - - - - - - -
29/08:30am 15.4 W 6 7 1023.5 - 0.0 - - - - - - -
29/08:00am 14.2 NW 7 8 1023.2 - 0.0 - - - - - - -
29/07:30am 13.7 NW 7 8 1023.1 - 0.0 - - - - - - -
29/07:00am 13.5 NW 7 8 1023.0 - 0.0 - - - - - - -
29/06:30am 13.8 NW 5 6 1022.8 - 0.0 - - - - - - -
29/06:00am 14.2 NW 5 6 1022.4 - 0.0 - - - - - - -
29/05:30am 14.0 WNW 5 6 1022.2 - 0.0 - - - - - - -
29/05:00am 14.3 WNW 6 6 1022.1 - 0.0 - - - - - - -
29/04:30am 14.1 WNW 7 8 1021.9 - 0.0 - - - - - - -
29/04:00am 14.2 WNW 7 8 1021.8 - 0.0 - - - - - - -
29/03:30am 14.3 WNW 8 9 1021.9 - 0.0 - - - - - - -
29/03:00am 14.4 WNW 7 8 1022.1 - 0.0 - - - - - - -
29/02:30am 14.4 WNW 6 8 1022.2 - 0.0 - - - - - - -
29/02:00am 14.5 WNW 6 8 1022.2 - 0.0 - - - - - - -
29/01:30am 14.5 WNW 8 9 1022.4 - 0.0 - - - - - - -
29/01:00am 14.7 WNW 7 8 1022.4 - 0.0 - - - - - - -
29/12:30am 14.8 WNW 7 8 1022.5 - 0.0 - - - - - - -
29/12:00am 14.6 WNW 7 8 1022.7 - 0.0 - - - - - - -
 
Date/Time
EST
Temp
°C
Wind Pressure Rain since
9am
mm
Weather Cloud Vis
km
Sea
Height
m
Swell
Dir  Spd
kts
Gust
kts
hPa Trend Height
m
Period
s
Dir
28/11:30pm 14.1 WNW 7 9 1022.8 - 0.0 - - - - - - -
28/11:00pm 13.6 WNW 8 10 1022.8 - 0.0 - - - - - - -
28/10:30pm 13.8 WNW 8 9 1023.1 - 0.0 - - - - - - -
28/10:00pm 13.9 WNW 8 9 1023.2 - 0.0 - - - - - - -
28/09:30pm 13.8 WNW 8 9 1023.3 - 0.0 - - - - - - -
28/09:00pm 14.3 NW 7 8 1023.4 - 0.0 - - - - - - -
28/08:30pm 14.2 WNW 8 9 1023.3 - 0.0 - - - - - - -
28/08:00pm 14.8 NW 6 8 1023.3 - 0.0 - - - - - - -
28/07:30pm 15.4 N 5 6 1023.3 - 0.0 - - - - - - -
28/07:00pm 16.5 ENE 4 5 1023.1 - 0.0 - - - - - - -
28/06:30pm 16.5 E 5 7 1023.0 - 0.0 - - - - - - -
28/06:00pm 16.7 ESE 6 7 1022.9 - 0.0 - - - - - - -
28/05:30pm 16.9 ESE 7 9 1022.8 - 0.0 - - - - - - -
28/05:00pm 17.1 ESE 9 11 1022.6 - 0.0 - - - - - - -
28/04:30pm 17.1 ESE 9 12 1022.5 - 0.0 - - - - - - -
28/04:00pm 17.5 SE 9 12 1022.4 - 0.0 - - - - - - -
28/03:30pm 17.6 SSE 10 13 1022.6 - 0.0 - - - - - - -
28/03:00pm 17.5 SSE 10 13 1022.5 - 0.0 - - - - - - -
28/02:30pm 17.6 S 12 14 1022.6 - 0.0 - - - - - - -
28/02:00pm 17.6 S 12 15 1022.6 - 0.0 - - - - - - -
28/01:30pm 17.6 S 13 16 1022.7 - 0.0 - - - - - - -
28/01:00pm 17.6 S 14 16 1023.0 - 0.0 - - - - - - -
28/12:30pm 17.5 S 12 14 1023.2 - 0.0 - - - - - - -
28/12:00pm 17.9 SSW 11 15 1023.6 - 0.0 - - - - - - -
28/11:30am 17.4 SSW 11 16 1023.9 - 0.0 - - - - - - -
28/11:00am 16.7 SW 13 19 1024.2 - 0.0 - - - - - - -
28/10:30am 16.0 SW 14 19 1024.4 - 0.0 - - - - - - -
28/10:00am 15.3 SW 13 19 1024.2 - 0.0 - - - - - - -
28/09:30am 14.7 SW 13 16 1024.2 - 0.0 - - - - - - -
28/09:00am 14.2 SW 15 21 1024.0 - 0.0 - - - - - - -
28/08:30am 13.6 SW 15 19 1023.7 - 0.0 - - - - - - -
28/08:00am 12.9 WSW 15 21 1023.6 - 0.0 - - - - - - -
28/07:30am 12.7 WSW 16 21 1023.3 - 0.0 - - - - - - -
28/07:00am 12.6 WSW 16 20 1022.9 - 0.0 - - - - - - -
28/06:30am 12.6 WSW 15 19 1022.4 - 0.0 - - - - - - -
28/06:00am 12.5 WSW 16 20 1022.1 - 0.0 - - - - - - -
28/05:30am 12.5 WSW 16 22 1021.7 - 0.0 - - - - - - -
28/05:00am 12.8 WSW 16 21 1021.3 - 0.0 - - - - - - -
28/04:30am 13.0 WSW 15 20 1021.0 - 0.0 - - - - - - -
28/04:00am 13.2 WSW 15 21 1020.9 - 0.0 - - - - - - -
28/03:30am 13.6 WSW 16 21 1020.9 - 0.0 - - - - - - -
28/03:00am 13.4 WSW 15 20 1020.9 - 0.0 - - - - - - -
28/02:30am 13.4 WSW 14 19 1020.9 - 0.0 - - - - - - -
28/02:00am 13.3 WSW 16 19 1021.0 - 0.0 - - - - - - -
28/01:30am 13.5 WSW 15 21 1021.2 - 0.0 - - - - - - -
28/01:00am 13.5 WSW 15 20 1021.3 - 0.0 - - - - - - -
28/12:30am 13.8 WSW 17 20 1021.2 - 0.0 - - - - - - -
28/12:00am 14.1 WSW 17 21 1020.9 - 0.0 - - - - - - -
 
Date/Time
EST
Temp
°C
Wind Pressure Rain since
9am
mm
Weather Cloud Vis
km
Sea
Height
m
Swell
Dir  Spd
kts
Gust
kts
hPa Trend Height
m
Period
s
Dir
27/11:30pm 14.2 WSW 17 23 1020.6 - 0.0 - - - - - - -
27/11:00pm 14.8 WSW 18 22 1020.4 - 0.0 - - - - - - -
27/10:30pm 14.8 WSW 17 21 1020.5 - 0.0 - - - - - - -
27/10:00pm 14.5 WSW 17 22 1020.4 - 0.0 - - - - - - -
27/09:30pm 15.1 W 16 20 1020.1 - 0.0 - - - - - - -
27/09:00pm 15.3 W 14 19 1020.0 - 0.0 - - - - - - -
27/08:30pm 16.2 W 15 19 1019.8 - 0.0 - - - - - - -
27/08:00pm 16.4 W 16 20 1019.5 - 0.0 - - - - - - -
27/07:30pm 15.5 WNW 10 13 1019.2 - 0.0 - - - - - - -
27/07:00pm 14.8 NW 6 9 1018.7 - 0.0 - - - - - - -
27/06:30pm 16.5 NNW 4 6 1018.2 - 0.0 - - - - - - -
27/06:00pm 17.0 NNW 7 9 1017.6 - 0.0 - - - - - - -
27/05:30pm 17.0 N 7 9 1017.2 - 0.0 - - - - - - -
27/05:00pm 17.6 N 5 7 1017.0 - 0.0 - - - - - - -
27/04:30pm 18.0 N 5 6 1016.7 - 0.0 - - - - - - -
27/04:00pm 18.1 N 5 7 1016.4 - 0.0 - - - - - - -
27/03:30pm 17.6 NW 5 8 1015.8 - 0.0 - - - - - - -
27/03:00pm 17.4 W 10 15 1016.0 - 0.0 - - - - - - -
27/02:30pm 17.7 WNW 13 21 1015.8 - 0.0 - - - - - - -
27/02:00pm 17.0 WNW 13 18 1016.0 - 0.0 - - - - - - -
27/01:30pm 17.2 WNW 9 16 1015.8 - 0.0 - - - - - - -
27/01:00pm 16.8 W 9 15 1016.3 - 0.0 - - - - - - -
27/12:30pm 16.8 W 9 15 1016.8 - 0.0 - - - - - - -
27/12:00pm 17.0 W 8 13 1017.2 - 0.0 - - - - - - -
27/11:30am 16.7 W 13 18 1017.4 - 0.0 - - - - - - -
27/11:00am 16.8 WSW 12 17 1017.8 - 0.0 - - - - - - -
27/10:30am 16.7 W 15 23 1018.0 - 0.0 - - - - - - -
27/10:00am 16.1 W 17 22 1017.7 - 0.0 - - - - - - -
27/09:30am 15.9 W 13 22 1017.7 - 0.0 - - - - - - -
27/09:00am 15.6 W 15 21 1017.9 - 0.0 - - - - - - -
27/08:30am 15.3 W 15 20 1017.5 - 0.0 - - - - - - -
27/08:00am 15.1 W 14 18 1017.7 - 0.0 - - - - - - -
27/07:30am 15.0 WSW 7 10 1017.8 - 0.0 - - - - - - -
27/07:00am 15.5 NW 10 16 1017.5 - 0.0 - - - - - - -
27/06:30am 15.7 WNW 11 17 1017.3 - 0.0 - - - - - - -
27/06:00am 16.2 W 15 19 1016.6 - 0.0 - - - - - - -
27/05:30am 16.2 W 13 16 1016.5 - 0.0 - - - - - - -
27/05:00am 15.9 W 15 21 1016.2 - 0.0 - - - - - - -
27/04:30am 15.5 WNW 12 16 1016.2 - 0.0 - - - - - - -
27/04:00am 15.6 W 14 21 1016.2 - 0.0 - - - - - - -
27/03:30am 15.1 WNW 9 15 1015.8 - 0.0 - - - - - - -
27/03:00am 15.4 WNW 7 12 1016.4 - 0.0 - - - - - - -
27/02:30am 14.3 WSW 9 11 1016.3 - 0.0 - - - - - - -
27/02:00am 15.1 WNW 6 9 1016.5 - 0.0 - - - - - - -
27/01:30am 15.1 WNW 7 9 1016.6 - 0.0 - - - - - - -
27/01:00am 16.0 W 5 13 1016.3 - 0.0 - - - - - - -
27/12:30am 17.1 WNW 9 11 1015.8 - 0.0 - - - - - - -
27/12:00am 17.4 W 11 14 1016.4 - 0.0 - - - - - - -
 
Date/Time
EST
Temp
°C
Wind Pressure Rain since
9am
mm
Weather Cloud Vis
km
Sea
Height
m
Swell
Dir  Spd
kts
Gust
kts
hPa Trend Height
m
Period
s
Dir
26/11:30pm 15.7 WNW 8 11 1016.3 - 0.0 - - - - - - -
26/11:00pm 15.0 WNW 7 12 1016.8 - 0.0 - - - - - - -
26/10:30pm 15.8 NNW 7 10 1016.5 - 0.0 - - - - - - -

Other Formats:

Comma delimited format used in spreadsheet applications
http://www.bom.gov.au/fwo/IDN60701/IDN60701.94599.axf

JavaScript Object Notation format (JSON) in row-major order
http://www.bom.gov.au/fwo/IDN60701/IDN60701.94599.json